Cadzand, Netherlands

3:52 AM CEST on August 28, 2015 (GMT +0200)
Knokke Heist Oostkust | | Change Station
CLOSE
Current Station
Personal Weather Station
Location: Heist aan zee, West-Vlaanderen
Elevation: 5 ft
Nearby Weather Stations

Elev 5 ft 51.32 °N, 3.29 °E | Updated 3 seconds ago

Scattered Clouds
Scattered Clouds
56.3 °F
Feels Like 56.3 °F
N
0.9
Wind Variable Wind from South
Gusts 3.2 mph

Today
High -- | Low -- °F
--% Chance of Precip.
Yesterday
High -- | Low -- °F
Precip. -- in
6:52 AM 8:42 PM
Waxing Gibbous, 96% visible
Pressure 29.92 in
Visibility 6.2 miles
Clouds Few 2200 ft
Scattered Clouds 7000 ft
Dew Point 55 °F
Humidity 94%
Rainfall 0.00 in
Snow Depth Not available.
UV 0.0 out of 12
Pollen Not available.
Air Quality Not available.
Flu Activity Not available.
METAR EBFN 280125Z 22005KT 9999 FEW022 SCT070 13/12 Q1013 BLU
Pressure 29.92 in
Visibility 6.2 miles
Clouds Few 2200 ft
Scattered Clouds 7000 ft
Dew Point 55 °F
Humidity 94%
Rainfall 0.00 in
Snow Depth Not available.
UV 0.0 out of 12
Pollen Not available.
Air Quality Not available.
Flu Activity Not available.
METAR EBFN 280125Z 22005KT 9999 FEW022 SCT070 13/12 Q1013 BLU

10-Day Weather Forecast

×

Almanac

Astronomy

Aug. 28, 2015 Rise Set
Actual Time
Civil Twilight
Nautical Twilight
Astronomical Twilight
Moon
Length of Visible Light
Length of Day
Tomorrow will be .
, % of the Moon is Illuminated

Today's Extremes

Country Highs Country Lows

Community

WunderPhotos

Upload Photos

1,850,296 photos uploaded!

WunderBlogs® & News

Nearby

Air Quality

  Air Quality AQ Index Pollutant
Not available.

Snow Depth

Station Depth Elevation

Earthquake Activity

City Distance Mag. Time & Date
Minimum magnitude displayed is 2.5.

Coastal Water Temperatures

Place Temperature

Stations

Nearby Weather Stations

Station Location Temp. Windchill Dew Point Humidity Wind Precip. Elev Updated Type